Time;durP1;ratioP1;P1;durP2;ratioP2;P2;SDS_P1;SDS_P2;PMS_P1;PMS_P2;Temp;Humidity;BMP_temperature;BMP_pressure;BME280_temperature;BME280_humidity;BME280_pressure;Samples;Min_cycle;Max_cycle;Signal;HPM_P1;HPM_P2
2021/12/19 00:01:47;;;;;;;41.27;32.10;;;4.70;99.90;;;;;;4953799;28;20819;-80
2021/12/19 00:04:22;;;;;;;41.60;31.67;;;4.70;99.90;;;;;;4953740;29;20462;-82
2021/12/19 00:09:33;;;;;;;48.17;33.30;;;4.90;99.90;;;;;;4953932;29;21027;-81
2021/12/19 00:12:01;;;;;;;40.20;33.20;;;4.80;99.90;;;;;;4953661;29;20456;-81
2021/12/19 00:14:28;;;;;;;44.60;35.90;;;4.90;99.90;;;;;;4954058;29;20454;-82
2021/12/19 00:16:55;;;;;;;41.77;33.20;;;4.90;99.90;;;;;;4953245;29;20869;-81
2021/12/19 00:19:22;;;;;;;46.87;37.07;;;4.90;99.90;;;;;;4953231;29;20488;-82
2021/12/19 00:21:50;;;;;;;47.20;36.90;;;4.80;99.90;;;;;;4953404;29;20527;-82
2021/12/19 00:24:17;;;;;;;43.47;33.90;;;4.80;99.90;;;;;;4953373;28;20475;-80
2021/12/19 00:26:44;;;;;;;43.07;35.30;;;4.80;99.90;;;;;;4953275;28;20448;-79
2021/12/19 00:29:12;;;;;;;47.10;35.70;;;4.80;99.90;;;;;;4953044;28;20948;-82
2021/12/19 00:31:39;;;;;;;47.43;35.10;;;4.80;99.90;;;;;;4953106;28;20457;-83
2021/12/19 00:34:06;;;;;;;44.70;32.70;;;4.90;99.90;;;;;;4953112;28;20838;-83
2021/12/19 00:36:33;;;;;;;45.27;36.03;;;5.00;99.90;;;;;;4953417;29;20464;-83
2021/12/19 00:39:00;;;;;;;38.40;30.23;;;4.90;99.90;;;;;;4953584;28;20547;-78
2021/12/19 00:41:27;;;;;;;40.37;30.30;;;4.80;99.90;;;;;;4952805;29;20515;-77
2021/12/19 00:43:56;;;;;;;39.23;29.70;;;4.70;99.90;;;;;;4953230;29;20470;-78
2021/12/19 00:46:26;;;;;;;41.40;33.10;;;4.70;99.90;;;;;;4952921;28;20461;-80
2021/12/19 00:48:55;;;;;;;42.37;32.37;;;4.70;99.90;;;;;;4953335;29;20848;-79
2021/12/19 00:51:25;;;;;;;41.00;33.13;;;4.70;99.90;;;;;;4952391;28;20496;-78
2021/12/19 00:53:53;;;;;;;43.00;32.87;;;4.80;99.90;;;;;;4952950;29;20503;-78
2021/12/19 00:56:20;;;;;;;46.13;34.47;;;4.70;99.90;;;;;;4952778;29;21178;-82
2021/12/19 00:58:46;;;;;;;45.90;33.20;;;4.60;99.90;;;;;;4953462;28;20853;-82
2021/12/19 01:01:15;;;;;;;45.27;38.97;;;4.60;99.90;;;;;;4953178;29;20463;-82
2021/12/19 01:03:46;;;;;;;46.90;36.50;;;4.60;99.90;;;;;;4952932;29;20550;-82
2021/12/19 01:06:16;;;;;;;51.47;36.20;;;4.50;99.90;;;;;;4953088;29;20441;-81
2021/12/19 01:08:42;;;;;;;39.40;33.03;;;4.50;99.90;;;;;;4953530;29;20457;-81
2021/12/19 01:11:10;;;;;;;44.10;31.77;;;4.40;99.90;;;;;;4953778;29;20859;-81
2021/12/19 01:13:36;;;;;;;44.10;32.57;;;4.30;99.90;;;;;;4953217;29;20456;-80
2021/12/19 01:16:03;;;;;;;42.80;32.70;;;4.40;99.90;;;;;;4953012;29;20967;-80
2021/12/19 01:18:30;;;;;;;40.63;31.33;;;4.40;99.90;;;;;;4959768;28;20461;-79
2021/12/19 01:20:58;;;;;;;41.30;31.70;;;4.40;99.90;;;;;;4978444;28;20425;-79
2021/12/19 01:23:25;;;;;;;39.63;31.33;;;4.50;99.90;;;;;;4978501;28;20454;-78
2021/12/19 01:25:52;;;;;;;40.03;29.60;;;4.40;99.90;;;;;;4971899;28;20441;-78
2021/12/19 01:28:19;;;;;;;43.37;32.43;;;4.50;99.90;;;;;;4964390;29;20453;-77
2021/12/19 01:30:46;;;;;;;43.27;31.53;;;4.60;99.90;;;;;;4964597;29;20487;-79
2021/12/19 01:33:13;;;;;;;42.60;31.43;;;4.70;99.90;;;;;;4956740;29;20583;-81
2021/12/19 01:35:40;;;;;;;38.13;28.20;;;4.60;99.90;;;;;;4952754;29;20489;-81
2021/12/19 01:38:08;;;;;;;38.63;30.53;;;4.60;99.90;;;;;;4952399;28;20809;-80
2021/12/19 01:40:35;;;;;;;45.77;33.90;;;4.60;99.90;;;;;;4956574;29;20530;-80
2021/12/19 01:43:02;;;;;;;45.97;32.50;;;4.40;99.90;;;;;;4956676;29;20471;-79
2021/12/19 01:45:30;;;;;;;46.33;32.40;;;4.40;99.90;;;;;;4956724;29;20818;-79
2021/12/19 01:47:58;;;;;;;36.77;28.93;;;4.50;99.90;;;;;;4956685;28;20456;-80
2021/12/19 01:50:26;;;;;;;50.53;31.90;;;4.60;99.90;;;;;;4956722;29;20456;-80
2021/12/19 01:52:53;;;;;;;45.40;35.20;;;4.40;99.90;;;;;;4956366;29;20488;-80
2021/12/19 01:55:21;;;;;;;43.23;32.00;;;4.30;99.90;;;;;;4956359;29;20464;-77
2021/12/19 01:57:48;;;;;;;48.03;34.07;;;4.30;99.90;;;;;;4956267;29;20480;-77
2021/12/19 02:00:22;;;;;;;53.43;34.90;;;4.40;99.90;;;;;;4956327;29;20499;-77
2021/12/19 02:02:49;;;;;;;46.10;31.83;;;4.40;99.90;;;;;;4956695;29;20435;-78
2021/12/19 02:05:16;;;;;;;40.60;30.90;;;4.50;99.90;;;;;;4956665;29;20456;-78
2021/12/19 02:07:46;;;;;;;46.90;33.17;;;4.40;99.90;;;;;;4956100;29;20872;-79
2021/12/19 02:10:14;;;;;;;44.63;32.37;;;4.40;99.90;;;;;;4956207;29;20456;-79
2021/12/19 02:12:43;;;;;;;51.13;35.43;;;4.40;99.90;;;;;;4955994;28;20511;-78
2021/12/19 02:15:11;;;;;;;46.60;34.40;;;4.50;99.90;;;;;;4955970;29;20466;-79
2021/12/19 02:17:38;;;;;;;43.80;33.53;;;4.60;99.90;;;;;;4955934;29;20551;-80
2021/12/19 02:20:11;;;;;;;50.60;34.13;;;4.60;99.90;;;;;;4937209;29;20548;-80
2021/12/19 02:22:38;;;;;;;44.77;32.33;;;4.60;99.90;;;;;;4936739;29;20480;-80
2021/12/19 02:25:06;;;;;;;40.97;33.40;;;4.60;99.90;;;;;;4936681;29;20445;-79
2021/12/19 02:27:32;;;;;;;44.83;34.07;;;4.60;99.90;;;;;;4936796;29;20485;-79
2021/12/19 02:30:00;;;;;;;37.30;30.90;;;4.50;99.90;;;;;;4936688;29;20453;-79
2021/12/19 02:32:29;;;;;;;44.07;30.70;;;4.40;99.90;;;;;;4937109;29;20457;-79
2021/12/19 02:34:59;;;;;;;42.77;31.67;;;4.30;99.90;;;;;;4936585;29;20940;-80
2021/12/19 02:37:55;;;;;;;43.30;33.07;;;4.40;99.90;;;;;;4936388;29;20554;-79
2021/12/19 02:40:33;;;;;;;42.97;31.80;;;4.40;99.90;;;;;;4936003;29;20503;-79
2021/12/19 02:48:30;;;;;;;49.03;33.03;;;4.20;99.90;;;;;;4936268;29;20464;-78
2021/12/19 02:50:58;;;;;;;45.37;33.00;;;4.20;99.90;;;;;;4936031;29;20830;-79
2021/12/19 02:53:32;;;;;;;46.80;35.60;;;4.30;99.90;;;;;;4955098;29;20493;-79
2021/12/19 02:55:58;;;;;;;45.80;32.53;;;4.40;99.90;;;;;;4956185;29;20448;-77
2021/12/19 02:58:26;;;;;;;47.93;34.70;;;4.40;99.90;;;;;;4955277;29;20466;-76
2021/12/19 03:00:53;;;;;;;57.87;35.07;;;4.20;99.90;;;;;;4955469;28;20511;-76
2021/12/19 03:03:20;;;;;;;50.17;35.60;;;4.30;99.90;;;;;;4955083;28;20460;-76
2021/12/19 03:05:47;;;;;;;53.87;37.10;;;4.40;99.90;;;;;;4955251;29;20464;-76
2021/12/19 03:08:13;;;;;;;54.77;37.43;;;4.50;99.90;;;;;;4955292;29;20834;-77
2021/12/19 03:11:27;;;;;;;56.70;35.10;;;4.40;99.90;;;;;;4955188;29;20460;-77
2021/12/19 03:19:18;;;;;;;49.73;35.17;;;4.40;99.90;;;;;;4954935;29;20878;-78
2021/12/19 03:21:45;;;;;;;54.90;35.07;;;4.40;99.90;;;;;;4954685;29;20461;-76
2021/12/19 03:24:11;;;;;;;60.87;36.87;;;4.20;99.90;;;;;;4953440;28;20481;-75
2021/12/19 03:26:40;;;;;;;50.40;36.67;;;4.10;99.90;;;;;;4955065;29;20478;-75
2021/12/19 03:29:06;;;;;;;55.07;34.77;;;4.00;99.90;;;;;;4954832;29;20818;-74
2021/12/19 03:31:33;;;;;;;56.60;34.00;;;4.00;99.90;;;;;;4954754;29;20484;-76
2021/12/19 03:34:00;;;;;;;55.87;34.60;;;3.90;99.90;;;;;;4954995;29;20885;-76
2021/12/19 03:36:27;;;;;;;55.53;35.87;;;3.90;99.90;;;;;;4954618;29;20943;-78
2021/12/19 03:38:58;;;;;;;61.93;36.40;;;3.80;99.90;;;;;;4954518;29;20488;-76
2021/12/19 03:41:33;;;;;;;52.17;33.97;;;3.80;99.90;;;;;;4954662;29;20460;-79
2021/12/19 03:44:01;;;;;;;60.57;38.93;;;3.80;99.90;;;;;;4954789;29;20467;-78
2021/12/19 03:46:28;;;;;;;59.90;36.10;;;3.80;99.90;;;;;;4954897;29;20456;-77
2021/12/19 03:48:55;;;;;;;54.97;37.20;;;3.80;99.90;;;;;;4954303;29;20460;-78
2021/12/19 03:51:22;;;;;;;62.97;38.30;;;3.90;99.90;;;;;;4954024;29;20489;-78
2021/12/19 03:53:49;;;;;;;58.90;37.47;;;3.90;99.90;;;;;;4954662;29;20458;-79
2021/12/19 03:56:16;;;;;;;61.10;36.60;;;3.80;99.90;;;;;;4954225;29;20461;-79
2021/12/19 03:58:43;;;;;;;53.37;36.70;;;3.80;99.90;;;;;;4954513;29;20468;-79
2021/12/19 04:01:11;;;;;;;72.00;39.17;;;3.90;99.90;;;;;;4953773;28;20456;-78
2021/12/19 04:03:37;;;;;;;58.10;35.67;;;3.90;99.90;;;;;;4954098;28;20463;-78
2021/12/19 04:06:05;;;;;;;55.67;37.90;;;4.00;99.90;;;;;;4947276;29;20942;-79
2021/12/19 04:08:32;;;;;;;57.50;37.67;;;3.90;99.90;;;;;;4944328;29;20464;-78
2021/12/19 04:10:59;;;;;;;56.63;36.93;;;4.10;99.90;;;;;;4944213;29;20929;-78
2021/12/19 04:13:25;;;;;;;56.47;34.67;;;4.00;99.90;;;;;;4940273;29;20504;-76
2021/12/19 04:15:52;;;;;;;52.27;37.17;;;4.00;99.90;;;;;;4942924;29;20472;-79
2021/12/19 04:18:21;;;;;;;52.60;33.60;;;4.10;99.90;;;;;;4941910;29;20461;-77
2021/12/19 04:20:48;;;;;;;51.13;33.20;;;4.10;99.90;;;;;;4943501;28;21007;-79
2021/12/19 04:23:15;;;;;;;44.60;31.33;;;4.10;99.90;;;;;;4946303;28;20473;-79
2021/12/19 04:25:42;;;;;;;49.57;33.63;;;4.20;99.90;;;;;;4941991;29;20462;-79
2021/12/19 04:28:08;;;;;;;48.53;33.60;;;4.20;99.90;;;;;;4943636;29;20449;-79
2021/12/19 04:30:36;;;;;;;50.90;33.40;;;4.30;99.90;;;;;;4943734;29;20448;-80
2021/12/19 04:33:06;;;;;;;49.93;33.10;;;4.40;99.90;;;;;;4941811;29;20931;-80
2021/12/19 04:35:36;;;;;;;51.33;31.70;;;4.40;99.90;;;;;;4942836;29;20481;-80
2021/12/19 04:38:56;;;;;;;50.90;34.20;;;4.40;99.90;;;;;;4943751;29;20442;-80
2021/12/19 04:41:48;;;;;;;50.93;33.87;;;4.30;99.90;;;;;;4943671;29;20949;-80
2021/12/19 04:53:01;;;;;;;56.90;37.30;;;4.20;99.90;;;;;;4952049;28;20468;-79
2021/12/19 04:55:58;;;;;;;61.57;35.57;;;4.10;99.90;;;;;;4962495;28;20467;-81
2021/12/19 04:58:50;;;;;;;58.97;35.50;;;4.30;99.90;;;;;;4957645;28;20622;-80
2021/12/19 05:01:37;;;;;;;52.43;32.57;;;4.30;99.90;;;;;;4961715;28;20465;-79
2021/12/19 05:04:22;;;;;;;40.73;30.50;;;4.30;99.90;;;;;;4962681;28;20444;-80
2021/12/19 05:14:03;;;;;;;42.03;30.00;;;4.30;99.90;;;;;;4963711;28;20837;-80
2021/12/19 05:15:13;;;;;;;26.17;23.37;;;4.20;99.90;;;;;;4960157;28;20528;-80
2021/12/19 05:17:40;;;;;;;29.77;26.10;;;4.10;99.90;;;;;;4960459;28;20526;-81
2021/12/19 05:20:14;;;;;;;28.17;23.90;;;4.10;99.90;;;;;;4958463;28;20480;-82
2021/12/19 05:22:47;;;;;;;27.40;23.53;;;4.10;99.90;;;;;;4960870;28;20542;-80
2021/12/19 05:25:17;;;;;;;27.97;23.00;;;4.20;99.90;;;;;;4962232;28;20450;-80
2021/12/19 05:27:45;;;;;;;28.50;22.70;;;4.30;99.90;;;;;;4963575;28;20500;-78
2021/12/19 05:30:14;;;;;;;27.43;24.13;;;4.20;99.90;;;;;;4961489;28;20443;-77
2021/12/19 05:32:41;;;;;;;26.90;23.17;;;4.20;99.90;;;;;;4962592;28;20478;-82
2021/12/19 05:35:10;;;;;;;31.50;23.53;;;4.20;99.90;;;;;;4961397;28;20451;-82
2021/12/19 05:45:58;;;;;;;25.57;22.50;;;4.30;99.90;;;;;;4957675;28;20478;-77
2021/12/19 05:48:25;;;;;;;24.20;21.60;;;4.30;99.90;;;;;;4996394;28;20451;-79
2021/12/19 05:50:51;;;;;;;26.50;23.40;;;4.20;99.90;;;;;;4997928;28;20431;-78
2021/12/19 05:53:18;;;;;;;26.03;23.27;;;4.30;99.90;;;;;;4997552;28;20451;-80
2021/12/19 05:55:46;;;;;;;26.03;20.70;;;4.30;99.90;;;;;;4991677;28;20439;-78
2021/12/19 05:58:13;;;;;;;24.50;21.00;;;4.30;99.90;;;;;;4996512;28;20443;-81
2021/12/19 06:00:40;;;;;;;24.53;22.03;;;4.30;99.90;;;;;;4995236;28;20526;-82
2021/12/19 06:03:07;;;;;;;29.43;22.77;;;4.20;99.90;;;;;;4971940;28;20451;-84
2021/12/19 06:05:34;;;;;;;26.73;22.03;;;4.30;99.90;;;;;;4971931;28;20452;-81
2021/12/19 06:08:01;;;;;;;31.73;23.03;;;4.20;99.90;;;;;;4972261;28;20463;-83
2021/12/19 06:10:28;;;;;;;26.53;22.37;;;4.30;99.90;;;;;;4971990;28;20938;-82
2021/12/19 06:12:59;;;;;;;30.17;24.53;;;4.20;99.90;;;;;;4971784;28;20548;-81
2021/12/19 06:15:26;;;;;;;25.50;22.57;;;4.10;99.90;;;;;;4971736;28;20459;-81
2021/12/19 06:17:53;;;;;;;24.87;22.17;;;4.10;99.90;;;;;;4969481;28;20451;-81
2021/12/19 06:20:21;;;;;;;23.13;20.30;;;4.20;99.90;;;;;;4952563;29;20495;-79
2021/12/19 06:22:48;;;;;;;25.67;23.10;;;4.20;99.90;;;;;;4952421;28;20484;-78
2021/12/19 06:25:15;;;;;;;25.13;22.53;;;4.20;99.90;;;;;;4954079;28;20458;-78
2021/12/19 06:27:42;;;;;;;28.63;23.23;;;4.20;99.90;;;;;;4955662;29;20514;-79
2021/12/19 06:30:12;;;;;;;25.43;21.73;;;4.10;99.90;;;;;;4955862;28;20862;-79
2021/12/19 06:32:39;;;;;;;23.87;21.37;;;3.90;99.90;;;;;;4955906;29;20853;-80
2021/12/19 06:35:10;;;;;;;25.77;23.00;;;3.90;99.90;;;;;;4955771;28;20514;-80
2021/12/19 06:37:38;;;;;;;25.33;22.83;;;3.90;99.90;;;;;;4955460;29;20456;-78
2021/12/19 06:40:07;;;;;;;25.10;22.20;;;3.90;99.90;;;;;;4955633;29;20536;-78
2021/12/19 06:42:34;;;;;;;27.53;22.93;;;3.90;99.90;;;;;;4955443;29;20461;-77
2021/12/19 06:45:01;;;;;;;23.93;21.23;;;3.90;99.90;;;;;;4955426;28;20463;-78
2021/12/19 06:47:29;;;;;;;23.17;20.77;;;3.90;99.90;;;;;;4955500;29;20456;-77
2021/12/19 06:49:56;;;;;;;19.83;17.83;;;4.00;99.90;;;;;;4955546;28;20506;-78
2021/12/19 06:52:23;;;;;;;21.80;19.70;;;3.90;99.90;;;;;;4955181;28;20487;-77
2021/12/19 06:54:49;;;;;;;21.70;19.40;;;3.90;99.90;;;;;;4927963;29;20457;-75
2021/12/19 06:57:16;;;;;;;21.83;19.73;;;3.90;99.90;;;;;;4917076;29;21008;-77
2021/12/19 06:59:43;;;;;;;20.97;19.07;;;3.90;99.90;;;;;;4938339;29;20797;-77
2021/12/19 07:02:13;;;;;;;20.67;18.47;;;4.00;99.90;;;;;;4944808;29;20507;-78
2021/12/19 07:04:41;;;;;;;18.60;16.60;;;4.10;99.90;;;;;;4945471;29;20549;-77
2021/12/19 07:07:08;;;;;;;19.93;18.13;;;4.00;99.90;;;;;;4941439;29;20480;-78
2021/12/19 07:09:35;;;;;;;20.63;18.67;;;4.00;99.90;;;;;;4944101;29;20950;-78
2021/12/19 07:12:02;;;;;;;22.20;19.90;;;4.00;99.90;;;;;;4945222;29;20454;-80
2021/12/19 07:14:29;;;;;;;22.97;20.40;;;4.10;99.90;;;;;;4943913;29;20825;-80
2021/12/19 07:16:55;;;;;;;21.10;19.00;;;4.00;99.90;;;;;;4943875;29;20452;-80
2021/12/19 07:19:22;;;;;;;20.87;18.77;;;4.00;99.90;;;;;;4945890;29;20515;-79
2021/12/19 07:21:50;;;;;;;21.37;19.27;;;3.80;99.90;;;;;;4943585;29;20504;-76
2021/12/19 07:24:17;;;;;;;20.87;18.90;;;3.70;99.90;;;;;;4943546;28;20538;-76
2021/12/19 07:26:44;;;;;;;20.63;18.80;;;3.80;99.90;;;;;;4945267;28;20853;-77
2021/12/19 07:29:11;;;;;;;22.03;19.77;;;3.90;99.90;;;;;;4943509;29;20524;-77
2021/12/19 07:31:38;;;;;;;24.27;21.77;;;3.80;99.90;;;;;;4946183;28;20492;-79
2021/12/19 07:34:06;;;;;;;20.30;16.90;;;3.80;99.90;;;;;;4942887;28;20526;-78
2021/12/19 07:36:39;;;;;;;22.17;20.07;;;3.90;99.90;;;;;;4943029;29;20456;-79
2021/12/19 07:39:11;;;;;;;20.10;18.30;;;4.00;99.90;;;;;;4940272;29;20944;-80
2021/12/19 07:41:38;;;;;;;21.60;19.50;;;4.00;99.90;;;;;;4943183;29;20488;-80
2021/12/19 07:44:06;;;;;;;20.97;19.00;;;4.00;99.90;;;;;;4942744;29;20449;-79
2021/12/19 07:46:33;;;;;;;19.70;17.90;;;4.00;99.90;;;;;;4946097;28;20452;-81
2021/12/19 07:49:00;;;;;;;20.70;18.83;;;3.90;99.90;;;;;;4942348;29;20463;-80
2021/12/19 07:51:27;;;;;;;18.27;16.43;;;3.90;99.90;;;;;;4943479;28;20469;-76
2021/12/19 07:53:53;;;;;;;21.33;19.13;;;3.80;99.90;;;;;;4961821;28;20459;-77
2021/12/19 07:56:21;;;;;;;20.20;18.20;;;3.70;99.90;;;;;;4959507;28;20448;-78
2021/12/19 07:58:48;;;;;;;20.40;18.20;;;3.70;99.90;;;;;;4954220;28;20456;-78
2021/12/19 08:01:15;;;;;;;21.17;18.97;;;3.80;99.90;;;;;;4954055;29;20495;-80
2021/12/19 08:03:41;;;;;;;18.23;16.87;;;3.90;99.90;;;;;;4954497;29;20448;-79
2021/12/19 08:06:08;;;;;;;18.77;17.10;;;3.80;99.90;;;;;;4954116;28;20452;-80
2021/12/19 08:08:35;;;;;;;19.27;17.57;;;3.90;99.90;;;;;;4954572;29;20906;-80
2021/12/19 08:13:48;;;;;;;19.30;17.47;;;3.90;99.90;;;;;;4953843;29;20619;-79
2021/12/19 08:16:15;;;;;;;18.90;17.23;;;4.10;99.90;;;;;;4953794;29;20856;-78
2021/12/19 08:18:41;;;;;;;17.87;16.33;;;4.10;99.90;;;;;;4953768;28;20456;-79
2021/12/19 08:21:08;;;;;;;20.00;18.10;;;4.30;99.90;;;;;;4953864;28;20543;-80
2021/12/19 08:23:36;;;;;;;17.90;16.33;;;4.40;99.90;;;;;;4953668;28;20531;-80
2021/12/19 08:26:03;;;;;;;17.83;16.23;;;4.30;99.90;;;;;;4953992;29;20562;-80
2021/12/19 08:28:29;;;;;;;17.53;16.07;;;4.20;99.90;;;;;;4953479;29;20452;-78
2021/12/19 08:30:57;;;;;;;18.07;16.40;;;4.30;99.90;;;;;;4953644;29;20454;-80
2021/12/19 08:33:24;;;;;;;17.43;16.13;;;4.40;99.90;;;;;;4953424;28;20460;-81
2021/12/19 08:35:51;;;;;;;17.20;15.70;;;4.40;99.90;;;;;;4953725;29;20457;-82
2021/12/19 08:38:17;;;;;;;17.33;15.83;;;4.50;99.90;;;;;;4953028;28;20453;-80
2021/12/19 08:40:46;;;;;;;15.30;14.07;;;4.50;99.90;;;;;;4953159;28;20490;-79
2021/12/19 08:43:13;;;;;;;15.07;13.97;;;4.60;99.90;;;;;;4953221;28;20452;-79
2021/12/19 08:45:40;;;;;;;14.97;13.70;;;4.60;99.90;;;;;;4953355;29;20452;-80
2021/12/19 08:48:08;;;;;;;14.23;13.23;;;4.80;99.90;;;;;;4952966;28;21081;-78
2021/12/19 08:50:35;;;;;;;14.53;13.63;;;4.80;99.90;;;;;;4953677;29;20448;-79
2021/12/19 08:53:02;;;;;;;14.17;13.17;;;4.70;99.90;;;;;;4953208;28;20872;-79
2021/12/19 08:55:28;;;;;;;13.00;12.10;;;4.80;99.90;;;;;;4960015;28;21271;-80
2021/12/19 08:57:55;;;;;;;13.43;12.63;;;4.80;99.90;;;;;;4958453;28;20511;-79
2021/12/19 09:00:22;;;;;;;17.37;15.73;;;4.80;99.90;;;;;;4961473;28;20943;-78
2021/12/19 09:02:54;;;;;;;15.53;14.13;;;4.70;99.90;;;;;;4962458;28;20479;-78
2021/12/19 09:05:23;;;;;;;15.37;14.07;;;4.60;99.90;;;;;;4959429;28;20945;-77
2021/12/19 09:07:51;;;;;;;15.00;13.53;;;4.30;99.90;;;;;;4960781;28;20448;-78
2021/12/19 09:10:19;;;;;;;15.23;14.13;;;4.10;99.90;;;;;;4955071;28;20455;-79
2021/12/19 09:12:45;;;;;;;15.83;14.63;;;4.00;99.90;;;;;;4961781;28;20456;-79
2021/12/19 09:15:12;;;;;;;16.20;14.90;;;4.00;99.90;;;;;;4960545;28;20449;-76
2021/12/19 09:17:39;;;;;;;15.33;14.37;;;4.10;99.90;;;;;;4959966;28;20503;-78
2021/12/19 09:20:08;;;;;;;15.00;13.70;;;4.10;99.90;;;;;;4961755;28;21259;-82
2021/12/19 09:22:37;;;;;;;16.20;15.00;;;4.30;99.90;;;;;;4962691;28;20487;-78
2021/12/19 09:25:05;;;;;;;13.60;12.70;;;4.30;99.90;;;;;;4954945;28;20584;-74
2021/12/19 09:27:31;;;;;;;15.23;13.93;;;4.20;99.90;;;;;;4952603;29;20456;-75
2021/12/19 09:29:58;;;;;;;16.63;15.43;;;4.10;99.90;;;;;;4952879;29;20488;-87
2021/12/19 09:32:25;;;;;;;14.10;13.00;;;4.00;99.90;;;;;;4952839;28;20456;-79
2021/12/19 09:34:51;;;;;;;14.70;13.63;;;4.00;99.90;;;;;;4952821;29;20947;-79
2021/12/19 09:37:18;;;;;;;12.90;11.90;;;4.10;99.90;;;;;;4953324;28;20461;-74
2021/12/19 09:39:49;;;;;;;15.07;13.83;;;4.20;99.90;;;;;;4952461;28;20511;-76
2021/12/19 09:42:20;;;;;;;13.97;13.17;;;4.40;99.90;;;;;;4950732;28;21085;-76
2021/12/19 09:47:33;;;;;;;14.30;13.30;;;4.40;99.90;;;;;;4944646;28;20457;-80
2021/12/19 09:50:00;;;;;;;14.27;13.23;;;4.20;99.90;;;;;;4952917;29;20460;-82
2021/12/19 09:52:28;;;;;;;13.60;12.60;;;4.10;99.90;;;;;;4952736;29;20473;-82
2021/12/19 09:54:56;;;;;;;15.90;14.57;;;4.10;99.90;;;;;;4952983;28;20452;-81
2021/12/19 09:57:23;;;;;;;16.47;15.47;;;4.10;99.90;;;;;;4952721;29;20452;-79
2021/12/19 09:59:50;;;;;;;16.87;15.57;;;4.10;99.90;;;;;;4953840;28;20448;-80
2021/12/19 10:02:16;;;;;;;15.17;14.00;;;4.20;99.90;;;;;;4956570;29;20895;-80
2021/12/19 10:04:45;;;;;;;16.47;15.27;;;4.20;99.90;;;;;;4956521;29;20461;-80
2021/12/19 10:07:15;;;;;;;16.00;14.80;;;4.30;99.90;;;;;;4956445;28;20460;-81
2021/12/19 10:09:55;;;;;;;15.33;14.23;;;4.30;99.90;;;;;;4956515;29;20465;-80
2021/12/19 10:15:17;;;;;;;16.20;14.93;;;4.60;99.90;;;;;;4953001;28;20443;-79
2021/12/19 10:17:44;;;;;;;14.67;13.77;;;4.80;99.90;;;;;;4956273;29;20447;-80
2021/12/19 10:20:12;;;;;;;16.17;14.97;;;4.90;99.90;;;;;;4956426;29;20453;-80
2021/12/19 10:22:42;;;;;;;12.77;12.07;;;4.90;99.90;;;;;;4957141;28;20516;-81
2021/12/19 10:25:18;;;;;;;12.80;11.80;;;4.70;99.90;;;;;;4957718;29;20949;-79
2021/12/19 10:27:48;;;;;;;12.00;11.33;;;4.80;99.90;;;;;;4957785;29;20491;-79
2021/12/19 10:30:19;;;;;;;11.37;10.80;;;4.90;99.90;;;;;;4981668;28;20640;-79
2021/12/19 10:32:55;;;;;;;10.37;9.87;;;5.10;99.90;;;;;;4981359;29;20436;-80
2021/12/19 10:35:25;;;;;;;11.87;11.07;;;5.30;99.90;;;;;;4980811;28;20432;-80
2021/12/19 10:37:52;;;;;;;11.43;10.80;;;5.50;99.90;;;;;;4978481;29;20440;-80
2021/12/19 10:40:19;;;;;;;10.47;9.87;;;5.70;99.90;;;;;;4977122;29;20452;-80
2021/12/19 10:42:56;;;;;;;11.03;10.43;;;5.70;99.90;;;;;;4972166;28;20493;-79
2021/12/19 10:45:32;;;;;;;11.53;10.80;;;6.00;99.90;;;;;;4946064;29;20597;-80
2021/12/19 10:48:34;;;;;;;12.20;11.50;;;5.80;99.90;;;;;;4945330;29;20468;-79
2021/12/19 10:51:05;;;;;;;10.57;10.07;;;5.80;99.90;;;;;;4949703;29;20461;-80
2021/12/19 10:53:39;;;;;;;9.83;9.43;;;5.80;99.90;;;;;;4952709;28;20496;-80
2021/12/19 10:56:09;;;;;;;9.97;9.40;;;5.90;99.90;;;;;;4955803;28;20466;-80
2021/12/19 10:58:42;;;;;;;11.07;10.47;;;6.10;99.90;;;;;;4955623;28;20458;-81
2021/12/19 11:01:18;;;;;;;10.83;10.33;;;6.40;99.90;;;;;;4955136;28;21066;-80
2021/12/19 11:04:05;;;;;;;10.27;9.77;;;6.50;99.90;;;;;;4955065;28;20535;-81
2021/12/19 11:06:36;;;;;;;11.00;10.27;;;6.50;99.90;;;;;;4953598;28;20814;-83
2021/12/19 11:09:09;;;;;;;11.17;10.60;;;6.30;99.90;;;;;;4955373;28;20463;-82
2021/12/19 11:11:48;;;;;;;10.00;9.50;;;6.20;99.90;;;;;;4954975;28;20452;-82
2021/12/19 11:14:19;;;;;;;10.03;9.63;;;6.20;99.90;;;;;;4954893;28;20876;-80
2021/12/19 11:16:47;;;;;;;10.10;9.60;;;6.00;99.90;;;;;;4954551;28;20453;-80
2021/12/19 11:19:14;;;;;;;11.03;10.37;;;5.90;99.90;;;;;;4954174;28;20456;-81
2021/12/19 11:21:42;;;;;;;9.63;9.17;;;6.10;99.90;;;;;;4955212;28;21157;-81
2021/12/19 11:24:12;;;;;;;11.07;10.47;;;5.90;99.90;;;;;;4954954;28;20483;-81
2021/12/19 11:26:41;;;;;;;10.43;9.93;;;5.80;99.90;;;;;;4954963;29;20487;-80
2021/12/19 11:29:09;;;;;;;10.87;10.17;;;5.90;99.90;;;;;;4954822;29;20456;-80
2021/12/19 11:31:38;;;;;;;10.47;9.77;;;6.00;99.90;;;;;;4954944;29;20508;-80
2021/12/19 11:34:21;;;;;;;10.80;10.20;;;5.90;99.90;;;;;;4954579;29;20470;-79
2021/12/19 11:36:58;;;;;;;10.57;10.00;;;6.00;99.90;;;;;;4955075;29;20451;-81
2021/12/19 11:39:32;;;;;;;10.30;9.90;;;6.00;99.90;;;;;;4954713;29;20464;-81
2021/12/19 11:42:07;;;;;;;10.10;9.57;;;6.00;99.90;;;;;;4940312;29;20552;-81
2021/12/19 11:44:45;;;;;;;11.80;11.20;;;5.70;99.90;;;;;;4938166;29;21044;-81
2021/12/19 11:47:16;;;;;;;11.13;10.53;;;5.60;99.90;;;;;;4940428;29;20530;-81
2021/12/19 11:49:43;;;;;;;11.03;10.53;;;5.60;99.90;;;;;;4954668;28;20461;-81
2021/12/19 11:52:25;;;;;;;10.60;10.00;;;5.70;99.90;;;;;;4935496;29;20485;-80
2021/12/19 11:55:18;;;;;;;10.67;10.07;;;5.60;99.90;;;;;;4935535;29;20461;-80
2021/12/19 11:58:35;;;;;;;10.63;10.03;;;5.60;99.90;;;;;;4935159;29;20459;-80
2021/12/19 12:01:10;;;;;;;9.53;9.03;;;5.70;99.90;;;;;;4876727;29;20471;-80
2021/12/19 12:03:48;;;;;;;9.77;9.37;;;5.70;99.90;;;;;;4924053;29;20481;-81
2021/12/19 12:06:28;;;;;;;10.20;9.70;;;5.70;99.90;;;;;;4934985;29;20518;-81
2021/12/19 12:09:23;;;;;;;11.00;10.30;;;5.80;99.90;;;;;;4935441;29;20457;-82
2021/12/19 12:12:19;;;;;;;11.40;10.70;;;6.00;99.90;;;;;;4935303;29;20835;-80
2021/12/19 12:15:07;;;;;;;11.97;11.27;;;5.80;99.90;;;;;;4935380;29;21195;-80
2021/12/19 12:17:44;;;;;;;11.93;11.27;;;5.80;99.90;;;;;;4934928;29;20467;-82
2021/12/19 12:20:21;;;;;;;13.07;12.27;;;5.90;99.90;;;;;;4934949;29;20943;-82
2021/12/19 12:22:57;;;;;;;12.17;11.37;;;6.00;99.90;;;;;;4934201;29;20493;-82
2021/12/19 12:25:34;;;;;;;12.60;11.80;;;5.90;99.90;;;;;;4934676;29;20498;-82
2021/12/19 12:28:06;;;;;;;12.50;11.67;;;5.70;99.90;;;;;;4934673;29;20608;-83
2021/12/19 12:30:35;;;;;;;12.23;11.47;;;5.80;99.90;;;;;;4934619;29;20470;-83
2021/12/19 12:33:06;;;;;;;12.10;11.40;;;5.80;99.90;;;;;;4934377;29;20457;-83
2021/12/19 12:35:35;;;;;;;11.90;11.17;;;5.80;99.90;;;;;;4934596;29;20460;-84
2021/12/19 12:38:02;;;;;;;11.50;10.80;;;5.80;99.90;;;;;;4934648;29;20896;-83
2021/12/19 12:40:31;;;;;;;11.50;10.87;;;5.80;99.90;;;;;;4934374;29;20462;-83
2021/12/19 12:43:17;;;;;;;10.10;9.60;;;5.80;99.90;;;;;;4934625;29;20497;-83
2021/12/19 12:45:51;;;;;;;11.50;10.90;;;6.00;99.90;;;;;;4934519;29;20541;-83
2021/12/19 12:48:42;;;;;;;11.90;11.20;;;6.00;99.90;;;;;;4934113;29;20450;-81
2021/12/19 12:51:12;;;;;;;12.40;11.70;;;6.00;99.90;;;;;;4931634;29;20532;-81
2021/12/19 12:53:41;;;;;;;11.57;10.80;;;6.00;99.90;;;;;;4934553;29;20457;-82
2021/12/19 12:56:13;;;;;;;12.67;11.30;;;5.90;99.90;;;;;;4934068;29;20485;-80
2021/12/19 12:58:43;;;;;;;11.60;10.90;;;5.70;99.90;;;;;;4934473;29;20486;-81
2021/12/19 13:01:25;;;;;;;11.40;10.80;;;5.70;99.90;;;;;;4934302;29;20453;-81
2021/12/19 13:04:15;;;;;;;11.90;11.20;;;5.70;99.90;;;;;;4934716;29;20461;-83
2021/12/19 13:06:58;;;;;;;13.30;12.50;;;5.80;99.90;;;;;;4935481;29;20797;-82
2021/12/19 13:09:28;;;;;;;12.97;11.90;;;5.80;99.90;;;;;;4932452;29;20476;-82
2021/12/19 13:12:01;;;;;;;11.00;10.30;;;5.80;99.90;;;;;;4933636;29;20463;-82
2021/12/19 13:14:30;;;;;;;12.60;11.70;;;5.80;99.90;;;;;;4948669;29;20473;-82
2021/12/19 13:16:58;;;;;;;12.83;12.03;;;5.60;99.90;;;;;;4953234;29;20455;-82
2021/12/19 13:19:42;;;;;;;12.23;11.43;;;5.70;99.90;;;;;;4938993;29;20475;-83
2021/12/19 13:22:12;;;;;;;12.53;11.73;;;5.80;99.90;;;;;;4932241;29;20778;-82
2021/12/19 13:24:39;;;;;;;13.60;12.70;;;5.90;99.90;;;;;;4931961;29;20460;-83
2021/12/19 13:27:13;;;;;;;14.13;13.23;;;5.90;99.90;;;;;;4931515;29;20457;-82
2021/12/19 13:29:41;;;;;;;12.47;11.67;;;5.80;99.90;;;;;;4932157;29;20878;-82
2021/12/19 13:32:19;;;;;;;12.77;11.93;;;5.80;99.90;;;;;;4931614;29;20514;-84
2021/12/19 13:34:47;;;;;;;13.13;12.23;;;5.80;99.90;;;;;;4933340;29;20858;-83
2021/12/19 13:37:14;;;;;;;13.77;12.87;;;5.80;99.90;;;;;;4937371;29;20464;-82
2021/12/19 13:39:43;;;;;;;12.57;11.77;;;5.90;99.90;;;;;;4937907;29;20519;-82